createdAt,value
2019-03-25T00:00:50.328Z,0.00
2019-03-25T00:01:50.331Z,0.00
2019-03-25T00:02:50.316Z,0.00
2019-03-25T00:03:50.316Z,0.00
2019-03-25T00:04:50.283Z,0.00
2019-03-25T00:05:50.319Z,0.00
2019-03-25T00:06:50.268Z,0.00
2019-03-25T00:07:50.240Z,0.00
2019-03-25T00:09:03.213Z,0.00
2019-03-25T00:09:51.229Z,0.00
2019-03-25T00:10:50.223Z,0.00
2019-03-25T00:11:50.230Z,0.00
2019-03-25T00:12:50.191Z,0.00
2019-03-25T00:13:50.179Z,0.00
2019-03-25T00:14:50.171Z,0.00
2019-03-25T00:15:50.218Z,0.00
2019-03-25T00:16:50.147Z,0.00
2019-03-25T00:17:50.146Z,0.00
2019-03-25T00:18:50.120Z,0.00
2019-03-25T00:19:50.126Z,0.00
2019-03-25T00:20:50.106Z,0.00
2019-03-25T00:21:50.154Z,0.00
2019-03-25T00:22:50.104Z,0.00
2019-03-25T00:23:50.085Z,0.00
2019-03-25T00:24:50.065Z,0.00
2019-03-25T00:25:50.062Z,0.00
2019-03-25T00:26:50.046Z,0.00
2019-03-25T00:27:50.055Z,0.00
2019-03-25T00:28:50.051Z,0.00
2019-03-25T00:29:50.014Z,0.00
2019-03-25T00:30:50.008Z,0.00
2019-03-25T00:31:50.007Z,0.00
2019-03-25T00:32:50.012Z,0.00
2019-03-25T00:33:49.995Z,0.00
2019-03-25T00:34:49.977Z,0.00
2019-03-25T00:35:49.944Z,0.00
2019-03-25T00:36:49.941Z,0.00
2019-03-25T00:37:49.978Z,0.00
2019-03-25T00:38:49.937Z,0.00
2019-03-25T00:39:49.929Z,0.00
2019-03-25T00:40:49.910Z,0.00
2019-03-25T00:41:49.902Z,0.00
2019-03-25T00:42:49.914Z,0.00
2019-03-25T00:43:49.897Z,0.00
2019-03-25T00:44:49.863Z,0.00
2019-03-25T00:45:49.852Z,0.00
2019-03-25T00:46:49.867Z,0.00
2019-03-25T00:47:49.849Z,0.00
2019-03-25T00:48:49.859Z,0.00
2019-03-25T00:49:49.841Z,0.00
2019-03-25T00:50:49.819Z,0.00
2019-03-25T00:51:49.790Z,0.00
2019-03-25T00:52:49.796Z,0.00
2019-03-25T00:53:49.764Z,0.00
2019-03-25T00:54:50.408Z,0.00
2019-03-25T00:55:49.744Z,0.00
2019-03-25T00:56:49.747Z,0.00
2019-03-25T00:57:49.734Z,0.00
2019-03-25T00:58:49.746Z,0.00
2019-03-25T00:59:49.708Z,0.00
2019-03-25T01:00:49.713Z,0.00
2019-03-25T01:01:49.716Z,0.00
2019-03-25T01:02:49.677Z,0.00
2019-03-25T01:03:49.653Z,0.00
2019-03-25T01:04:49.655Z,0.00
2019-03-25T01:05:49.644Z,0.00
2019-03-25T01:06:49.646Z,0.00
2019-03-25T01:07:49.622Z,0.00
2019-03-25T01:08:49.610Z,0.00
2019-03-25T01:09:49.593Z,0.00
2019-03-25T01:10:49.594Z,0.00
2019-03-25T01:11:49.615Z,0.00
2019-03-25T01:12:49.589Z,0.00
2019-03-25T01:13:49.548Z,0.00
2019-03-25T01:14:49.579Z,0.00
2019-03-25T01:15:49.546Z,0.00
2019-03-25T01:16:49.537Z,0.00
2019-03-25T01:17:49.509Z,0.00
2019-03-25T01:18:49.515Z,0.00
2019-03-25T01:19:49.499Z,0.00
2019-03-25T01:20:49.499Z,0.00
2019-03-25T01:21:49.502Z,0.00
2019-03-25T01:22:49.481Z,0.00
2019-03-25T01:23:49.456Z,0.00
2019-03-25T01:25:00.970Z,0.00
2019-03-25T01:25:50.453Z,0.00
2019-03-25T01:26:49.426Z,0.00
2019-03-25T01:27:49.427Z,0.00
2019-03-25T01:28:49.419Z,0.00
2019-03-25T01:29:49.390Z,0.00
2019-03-25T01:30:49.369Z,0.00
2019-03-25T01:31:49.403Z,0.00
2019-03-25T01:32:49.389Z,0.00
2019-03-25T01:33:49.362Z,0.00
2019-03-25T01:34:49.389Z,0.00
2019-03-25T01:35:49.323Z,0.00
2019-03-25T01:36:49.330Z,0.00
2019-03-25T01:37:49.330Z,0.00
2019-03-25T01:38:49.289Z,0.00
2019-03-25T01:39:49.304Z,0.00
2019-03-25T01:40:49.285Z,0.00
2019-03-25T01:41:49.318Z,0.00
2019-03-25T01:42:49.277Z,0.00
2019-03-25T01:43:49.248Z,0.00
2019-03-25T01:44:49.235Z,0.00
2019-03-25T01:45:49.227Z,0.00
2019-03-25T01:46:49.211Z,0.00
2019-03-25T01:47:49.225Z,0.00
2019-03-25T01:48:49.206Z,0.00
2019-03-25T01:49:49.194Z,0.00
2019-03-25T01:50:49.172Z,0.00
2019-03-25T01:51:49.160Z,0.00
2019-03-25T01:52:49.179Z,0.00
2019-03-25T01:53:49.134Z,0.00
2019-03-25T01:54:49.149Z,0.00
2019-03-25T01:55:49.118Z,0.00
2019-03-25T01:56:49.113Z,0.00
2019-03-25T01:57:49.130Z,0.00
2019-03-25T01:58:49.084Z,0.00
2019-03-25T01:59:49.077Z,0.00
2019-03-25T02:00:49.074Z,0.00
2019-03-25T02:01:49.059Z,0.00
2019-03-25T02:02:49.052Z,0.00
2019-03-25T02:03:49.081Z,0.00
2019-03-25T02:04:49.018Z,0.00
2019-03-25T02:05:49.009Z,0.00
2019-03-25T02:06:49.009Z,0.00
2019-03-25T02:07:48.997Z,0.00
2019-03-25T02:08:49.013Z,0.00
2019-03-25T02:09:48.959Z,0.00
2019-03-25T02:10:48.955Z,0.00
2019-03-25T02:11:48.957Z,0.00
2019-03-25T02:12:48.955Z,0.00
2019-03-25T02:13:48.929Z,0.00
2019-03-25T02:14:48.964Z,0.00
2019-03-25T02:15:48.903Z,0.00
2019-03-25T02:16:48.905Z,0.00
2019-03-25T02:17:48.899Z,0.00
2019-03-25T02:18:48.875Z,0.00
2019-03-25T02:19:48.860Z,0.00
2019-03-25T02:20:48.882Z,0.00
2019-03-25T02:21:48.844Z,0.00
2019-03-25T02:22:48.993Z,0.00
2019-03-25T02:23:48.851Z,0.00
2019-03-25T02:24:48.803Z,0.00
2019-03-25T02:25:48.833Z,0.00
2019-03-25T02:26:48.788Z,0.00
2019-03-25T02:27:48.779Z,0.00
2019-03-25T02:28:48.767Z,0.00
2019-03-25T02:29:48.751Z,0.00
2019-03-25T02:30:48.767Z,0.00
2019-03-25T02:31:48.725Z,0.00
2019-03-25T02:32:48.718Z,0.00
2019-03-25T02:33:48.711Z,0.00
2019-03-25T02:34:48.694Z,0.00
2019-03-25T02:35:48.712Z,0.00
2019-03-25T02:36:48.689Z,0.00
2019-03-25T02:37:48.698Z,0.00
2019-03-25T02:38:48.652Z,0.00
2019-03-25T02:39:48.647Z,0.00
2019-03-25T02:40:48.644Z,0.00
2019-03-25T02:41:48.664Z,0.00
2019-03-25T02:42:48.651Z,0.00
2019-03-25T02:43:48.629Z,0.00
2019-03-25T02:44:48.606Z,0.00
2019-03-25T02:45:48.590Z,0.00
2019-03-25T02:46:48.587Z,0.00
2019-03-25T02:47:48.566Z,0.00
2019-03-25T02:48:48.568Z,0.00
2019-03-25T02:49:48.541Z,0.00
2019-03-25T02:50:48.532Z,0.00
2019-03-25T02:51:48.559Z,0.00
2019-03-25T02:52:48.523Z,0.00
2019-03-25T02:53:48.563Z,0.00
2019-03-25T02:54:48.527Z,0.00
2019-03-25T02:55:48.487Z,0.00
2019-03-25T02:56:48.478Z,0.00
2019-03-25T02:57:48.457Z,0.00
2019-03-25T02:58:48.497Z,0.00
2019-03-25T02:59:48.453Z,0.00
2019-03-25T03:00:48.459Z,0.00
2019-03-25T03:01:48.424Z,0.00
2019-03-25T03:02:48.421Z,0.00
2019-03-25T03:03:48.407Z,0.00
2019-03-25T03:04:48.414Z,0.00
2019-03-25T03:05:48.387Z,0.00
2019-03-25T03:06:48.370Z,0.00
2019-03-25T03:07:48.356Z,0.00
2019-03-25T03:08:48.340Z,0.00
2019-03-25T03:09:48.396Z,0.00
2019-03-25T03:10:48.327Z,0.00
2019-03-25T03:11:48.349Z,0.00
2019-03-25T03:12:48.315Z,0.00
2019-03-25T03:13:48.296Z,0.00
2019-03-25T03:14:48.281Z,0.00
2019-03-25T03:15:48.288Z,0.00
2019-03-25T03:16:48.291Z,0.00
2019-03-25T03:17:48.264Z,0.00
2019-03-25T03:18:48.244Z,0.00
2019-03-25T03:19:48.233Z,0.00
2019-03-25T03:20:48.264Z,0.00
2019-03-25T03:21:48.243Z,0.00
2019-03-25T03:22:48.295Z,0.00
2019-03-25T03:23:48.202Z,0.00
2019-03-25T03:24:48.177Z,0.00
2019-03-25T03:25:57.097Z,0.00
2019-03-25T03:26:49.188Z,0.00
2019-03-25T03:27:48.152Z,0.00
2019-03-25T03:28:48.144Z,0.00
2019-03-25T03:29:48.163Z,0.00
2019-03-25T03:30:48.144Z,0.00
2019-03-25T03:31:48.124Z,0.00
2019-03-25T03:32:48.104Z,0.00
2019-03-25T03:33:48.093Z,0.00
2019-03-25T03:34:48.088Z,0.00
2019-03-25T03:35:48.058Z,0.00
2019-03-25T03:36:48.099Z,0.00
2019-03-25T03:37:48.344Z,0.00
2019-03-25T03:38:48.034Z,0.00
2019-03-25T03:39:48.050Z,0.00
2019-03-25T03:40:48.032Z,0.00
2019-03-25T03:41:48.023Z,0.00
2019-03-25T03:42:47.989Z,0.00
2019-03-25T03:43:48.009Z,0.00
2019-03-25T03:44:47.982Z,0.00
2019-03-25T03:45:48.918Z,0.00
2019-03-25T03:46:48.011Z,0.00
2019-03-25T03:47:47.941Z,0.00
2019-03-25T03:48:47.934Z,0.00
2019-03-25T03:49:48.032Z,0.00
2019-03-25T03:50:48.011Z,0.00
2019-03-25T03:51:47.946Z,0.00
2019-03-25T03:52:47.891Z,0.00
2019-03-25T03:53:47.875Z,0.00
2019-03-25T03:54:47.868Z,0.00
2019-03-25T03:55:47.868Z,0.00
2019-03-25T03:56:47.859Z,0.00
2019-03-25T03:57:47.862Z,0.00
2019-03-25T03:58:47.821Z,0.00
2019-03-25T03:59:47.864Z,0.00
2019-03-25T04:00:47.810Z,0.00
2019-03-25T04:01:47.789Z,0.00
2019-03-25T04:02:47.804Z,0.00
2019-03-25T04:03:47.809Z,0.00
2019-03-25T04:04:47.776Z,0.00
2019-03-25T04:05:47.762Z,0.00
2019-03-25T04:06:47.757Z,0.00
2019-03-25T04:07:47.744Z,0.00
2019-03-25T04:08:48.300Z,0.00
2019-03-25T04:09:48.274Z,0.00
2019-03-25T04:10:47.696Z,0.00
2019-03-25T04:11:47.702Z,0.00
2019-03-25T04:12:47.704Z,0.00
2019-03-25T04:13:47.662Z,0.00
2019-03-25T04:14:47.677Z,0.00
2019-03-25T04:15:47.650Z,0.00
2019-03-25T04:16:47.654Z,0.00
2019-03-25T04:17:47.750Z,0.00
2019-03-25T04:18:49.691Z,0.00
2019-03-25T04:19:47.611Z,0.00
2019-03-25T04:20:47.622Z,0.00
2019-03-25T04:21:47.590Z,0.00
2019-03-25T04:22:47.601Z,0.00
2019-03-25T04:23:47.573Z,0.00
2019-03-25T04:24:47.552Z,0.00
2019-03-25T04:25:47.592Z,0.00
2019-03-25T04:26:47.542Z,0.00
2019-03-25T04:27:47.538Z,0.00
2019-03-25T04:28:48.199Z,0.00
2019-03-25T04:29:47.524Z,0.00
2019-03-25T04:30:47.562Z,4.00
2019-03-25T04:31:47.511Z,4.00
2019-03-25T04:32:47.499Z,0.00
2019-03-25T04:33:47.473Z,4.00
2019-03-25T04:34:47.465Z,4.00
2019-03-25T04:35:47.500Z,0.00
2019-03-25T04:36:47.425Z,4.00
2019-03-25T04:37:47.448Z,4.00
2019-03-25T04:38:47.436Z,4.00
2019-03-25T04:39:47.417Z,4.00
2019-03-25T04:40:47.431Z,8.00
2019-03-25T04:41:47.370Z,8.00
2019-03-25T04:42:47.375Z,12.00
2019-03-25T04:43:47.366Z,12.00
2019-03-25T04:44:47.445Z,12.00
2019-03-25T04:45:47.371Z,16.00
2019-03-25T04:46:47.342Z,20.00
2019-03-25T04:47:47.340Z,20.00
2019-03-25T04:48:47.353Z,20.00
2019-03-25T04:49:47.296Z,24.00
2019-03-25T04:50:47.333Z,32.00
2019-03-25T04:51:47.350Z,32.00
2019-03-25T04:52:47.254Z,32.00
2019-03-25T04:53:47.328Z,28.00
2019-03-25T04:54:47.262Z,36.00
2019-03-25T04:55:47.258Z,40.00
2019-03-25T04:56:47.254Z,40.00
2019-03-25T04:57:47.203Z,44.00
2019-03-25T04:58:47.197Z,44.00
2019-03-25T04:59:47.218Z,48.00
2019-03-25T05:00:47.167Z,52.00
2019-03-25T05:01:47.168Z,60.00
2019-03-25T05:02:47.151Z,64.00
2019-03-25T05:03:47.146Z,72.00
2019-03-25T05:04:47.210Z,92.00
2019-03-25T05:05:47.137Z,112.00
2019-03-25T05:06:47.130Z,132.00
2019-03-25T05:07:47.106Z,140.00
2019-03-25T05:08:47.119Z,140.00
2019-03-25T05:09:47.704Z,144.00
2019-03-25T05:10:47.121Z,160.00
2019-03-25T05:11:47.074Z,192.00
2019-03-25T05:12:47.052Z,220.00
2019-03-25T05:13:47.044Z,232.00
2019-03-25T05:14:47.070Z,244.00
2019-03-25T05:15:47.024Z,248.00
2019-03-25T05:16:47.092Z,240.00
2019-03-25T05:17:47.090Z,216.00
2019-03-25T05:18:47.013Z,196.00
2019-03-25T05:19:46.988Z,180.00
2019-03-25T05:20:46.971Z,172.00
2019-03-25T05:21:46.988Z,176.00
2019-03-25T05:22:46.957Z,180.00
2019-03-25T05:23:46.985Z,208.00
2019-03-25T05:24:46.933Z,220.00
2019-03-25T05:25:46.916Z,232.00
2019-03-25T05:26:51.222Z,268.00
2019-03-25T05:27:46.894Z,260.00
2019-03-25T05:28:47.034Z,256.00
2019-03-25T05:29:46.909Z,336.00
2019-03-25T05:30:46.893Z,528.00
2019-03-25T05:31:46.877Z,700.00
2019-03-25T05:32:46.854Z,820.00
2019-03-25T05:33:46.835Z,904.00
2019-03-25T05:34:47.398Z,1024.00
2019-03-25T05:35:47.002Z,1172.00
2019-03-25T05:36:46.875Z,1324.00
2019-03-25T05:37:46.788Z,1260.00
2019-03-25T05:38:46.785Z,876.00
2019-03-25T05:39:46.973Z,696.00
2019-03-25T05:40:46.756Z,624.00
2019-03-25T05:41:46.789Z,528.00
2019-03-25T05:42:46.755Z,468.00
2019-03-25T05:43:46.772Z,340.00
2019-03-25T05:44:46.732Z,252.00
2019-03-25T05:45:46.718Z,200.00
2019-03-25T05:46:46.730Z,168.00
2019-03-25T05:47:46.776Z,148.00
2019-03-25T05:48:46.678Z,136.00
2019-03-25T05:49:46.684Z,140.00
2019-03-25T05:50:46.674Z,144.00
2019-03-25T05:51:47.725Z,168.00
2019-03-25T05:52:47.763Z,216.00
2019-03-25T05:53:47.967Z,248.00
2019-03-25T05:54:46.764Z,280.00
2019-03-25T05:55:46.769Z,344.00
2019-03-25T05:56:46.997Z,436.00
2019-03-25T05:57:46.578Z,440.00
2019-03-25T05:58:46.617Z,552.00
2019-03-25T05:59:46.566Z,672.00
2019-03-25T06:00:46.549Z,832.00
2019-03-25T06:01:50.209Z,808.00
2019-03-25T06:02:55.318Z,704.00
2019-03-25T06:03:50.775Z,700.00
2019-03-25T06:04:49.074Z,656.00
2019-03-25T06:05:48.794Z,620.00
2019-03-25T06:06:46.495Z,576.00
2019-03-25T06:07:46.517Z,436.00
2019-03-25T06:08:46.502Z,492.00
2019-03-25T06:09:46.628Z,468.00
2019-03-25T06:10:46.436Z,508.00
2019-03-25T06:11:46.437Z,436.00
2019-03-25T06:12:46.453Z,400.00
2019-03-25T06:13:46.427Z,468.00
2019-03-25T06:14:46.457Z,636.00
2019-03-25T06:15:46.399Z,684.00
2019-03-25T06:16:46.397Z,688.00
2019-03-25T06:17:46.385Z,664.00
2019-03-25T06:18:46.369Z,652.00
2019-03-25T06:19:46.368Z,700.00
2019-03-25T06:20:48.200Z,736.00
2019-03-25T06:21:46.455Z,680.00
2019-03-25T06:22:46.319Z,740.00
2019-03-25T06:23:46.347Z,756.00
2019-03-25T06:24:46.283Z,696.00
2019-03-25T06:25:46.286Z,736.00
2019-03-25T06:26:46.270Z,704.00
2019-03-25T06:27:46.310Z,636.00
2019-03-25T06:28:46.292Z,652.00
2019-03-25T06:29:46.296Z,652.00
2019-03-25T06:30:46.236Z,548.00
2019-03-25T06:31:46.278Z,560.00
2019-03-25T06:32:46.233Z,500.00
2019-03-25T06:33:46.237Z,404.00
2019-03-25T06:34:46.227Z,448.00
2019-03-25T06:35:46.255Z,436.00
2019-03-25T06:36:46.197Z,512.00
2019-03-25T06:37:46.183Z,524.00
2019-03-25T06:38:46.156Z,580.00
2019-03-25T06:39:46.148Z,612.00
2019-03-25T06:40:46.142Z,536.00
2019-03-25T06:41:46.154Z,612.00
2019-03-25T06:42:46.183Z,676.00
2019-03-25T06:43:46.138Z,620.00
2019-03-25T06:44:46.103Z,688.00
2019-03-25T06:45:46.083Z,652.00
2019-03-25T06:46:46.098Z,756.00
2019-03-25T06:47:46.078Z,712.00
2019-03-25T06:48:46.050Z,704.00
2019-03-25T06:49:46.044Z,684.00
2019-03-25T06:50:46.049Z,772.00
2019-03-25T06:51:46.108Z,680.00
2019-03-25T06:52:46.321Z,632.00
2019-03-25T06:53:46.006Z,708.00
2019-03-25T06:54:45.993Z,760.00
2019-03-25T06:55:46.003Z,752.00
2019-03-25T06:56:45.971Z,816.00
2019-03-25T06:57:45.975Z,780.00
2019-03-25T06:58:45.995Z,760.00
2019-03-25T06:59:45.940Z,740.00
2019-03-25T07:00:45.961Z,804.00
2019-03-25T07:01:45.919Z,860.00
2019-03-25T07:02:45.914Z,860.00
2019-03-25T07:03:45.928Z,908.00
2019-03-25T07:04:45.891Z,916.00
2019-03-25T07:05:45.867Z,1072.00
2019-03-25T07:06:45.861Z,1224.00
2019-03-25T07:07:45.856Z,1360.00
2019-03-25T07:08:45.856Z,1784.00
2019-03-25T07:09:45.847Z,1736.00
2019-03-25T07:10:45.828Z,1920.00
2019-03-25T07:11:45.819Z,2172.00
2019-03-25T07:12:45.800Z,2544.00
2019-03-25T07:13:45.803Z,2256.00
2019-03-25T07:14:45.830Z,2404.00
2019-03-25T07:15:45.780Z,2648.00
2019-03-25T07:16:45.792Z,2684.00
2019-03-25T07:17:45.760Z,2304.00
2019-03-25T07:18:45.744Z,2128.00
2019-03-25T07:19:45.722Z,2216.00
2019-03-25T07:20:45.747Z,1744.00
2019-03-25T07:21:45.722Z,1952.00
2019-03-25T07:22:45.688Z,2936.00
2019-03-25T07:23:45.742Z,3396.00
2019-03-25T07:24:45.682Z,2816.00
2019-03-25T07:25:45.705Z,3724.00
2019-03-25T07:26:45.663Z,3964.00
2019-03-25T07:27:45.658Z,3724.00
2019-03-25T07:28:45.630Z,2768.00
2019-03-25T07:29:45.633Z,2708.00
2019-03-25T07:30:45.626Z,2416.00
2019-03-25T07:31:45.638Z,2284.00
2019-03-25T07:32:45.612Z,2272.00
2019-03-25T07:33:45.580Z,2892.00
2019-03-25T07:34:45.575Z,4188.00
2019-03-25T07:35:45.569Z,3252.00
2019-03-25T07:36:45.556Z,3336.00
2019-03-25T07:37:45.548Z,2976.00
2019-03-25T07:38:45.548Z,2300.00
2019-03-25T07:39:45.531Z,3004.00
2019-03-25T07:40:45.572Z,2952.00
2019-03-25T07:41:45.521Z,2980.00
2019-03-25T07:42:45.488Z,3376.00
2019-03-25T07:43:45.484Z,3236.00
2019-03-25T07:44:45.476Z,2968.00
2019-03-25T07:45:45.470Z,4080.00
2019-03-25T07:46:45.450Z,4036.00
2019-03-25T07:47:45.452Z,3320.00
2019-03-25T07:48:45.450Z,3860.00
2019-03-25T07:49:45.521Z,4632.00
2019-03-25T07:50:45.420Z,5184.00
2019-03-25T07:51:45.406Z,6436.00
2019-03-25T07:52:45.421Z,6648.00
2019-03-25T07:53:45.367Z,6860.00
2019-03-25T07:54:45.372Z,5384.00
2019-03-25T07:55:45.380Z,3880.00
2019-03-25T07:56:45.366Z,3104.00
2019-03-25T07:57:48.575Z,3344.00
2019-03-25T07:58:45.374Z,3384.00
2019-03-25T07:59:45.345Z,3656.00
2019-03-25T08:00:45.301Z,3192.00
2019-03-25T08:01:45.311Z,3360.00
2019-03-25T08:02:45.302Z,3496.00
2019-03-25T08:03:45.297Z,3768.00
2019-03-25T08:04:45.270Z,3596.00
2019-03-25T08:05:45.278Z,3496.00
2019-03-25T08:06:45.248Z,2944.00
2019-03-25T08:07:45.275Z,4048.00
2019-03-25T08:08:45.285Z,4652.00
2019-03-25T08:09:45.256Z,6104.00
2019-03-25T08:10:45.213Z,6364.00
2019-03-25T08:11:45.201Z,7048.00
2019-03-25T08:12:45.185Z,7832.00
2019-03-25T08:13:45.208Z,7172.00
2019-03-25T08:14:45.156Z,6012.00
2019-03-25T08:15:45.186Z,5068.00
2019-03-25T08:16:46.285Z,5332.00
2019-03-25T08:17:45.747Z,6792.00
2019-03-25T08:18:45.178Z,8428.00
2019-03-25T08:19:45.126Z,8548.00
2019-03-25T08:20:45.133Z,8776.00
2019-03-25T08:21:45.080Z,7336.00
2019-03-25T08:22:45.082Z,5872.00
2019-03-25T08:23:45.077Z,7124.00
2019-03-25T08:24:45.760Z,5872.00
2019-03-25T08:25:47.769Z,5108.00
2019-03-25T08:26:45.137Z,5096.00
2019-03-25T08:27:45.044Z,3524.00
2019-03-25T08:28:45.042Z,3044.00
2019-03-25T08:29:45.001Z,3040.00
2019-03-25T08:30:45.018Z,3260.00
2019-03-25T08:31:46.775Z,3172.00
2019-03-25T08:32:44.981Z,2660.00
2019-03-25T08:33:44.976Z,2448.00
2019-03-25T08:34:44.985Z,2368.00
2019-03-25T08:35:46.242Z,2692.00
2019-03-25T08:36:45.086Z,2764.00
2019-03-25T08:37:44.975Z,3364.00
2019-03-25T08:38:44.946Z,3380.00
2019-03-25T08:39:44.913Z,4984.00
2019-03-25T08:40:44.881Z,7044.00
2019-03-25T08:41:44.893Z,6604.00
2019-03-25T08:42:44.869Z,7144.00
2019-03-25T08:43:45.022Z,7152.00
2019-03-25T08:44:44.855Z,5892.00
2019-03-25T08:45:44.856Z,7164.00
2019-03-25T08:46:44.921Z,7592.00
2019-03-25T08:47:44.814Z,7560.00
2019-03-25T08:48:44.813Z,8244.00
2019-03-25T08:49:44.803Z,7828.00
2019-03-25T08:50:44.773Z,5876.00
2019-03-25T08:51:44.797Z,4992.00
2019-03-25T08:52:44.749Z,4452.00
2019-03-25T08:53:44.751Z,3668.00
2019-03-25T08:54:44.730Z,4260.00
2019-03-25T08:55:44.716Z,3772.00
2019-03-25T08:56:44.733Z,3516.00
2019-03-25T08:57:44.748Z,5076.00
2019-03-25T08:58:44.876Z,5988.00
2019-03-25T08:59:44.702Z,4812.00
2019-03-25T09:00:46.231Z,4564.00
2019-03-25T09:01:44.713Z,2772.00
2019-03-25T09:02:44.669Z,2652.00
2019-03-25T09:03:45.320Z,3212.00
2019-03-25T09:04:44.650Z,4232.00
2019-03-25T09:05:44.769Z,5836.00
2019-03-25T09:06:44.625Z,6880.00
2019-03-25T09:07:44.634Z,5708.00
2019-03-25T09:08:48.688Z,4576.00
2019-03-25T09:09:44.583Z,4476.00
2019-03-25T09:10:44.560Z,6008.00
2019-03-25T09:11:44.558Z,7080.00
2019-03-25T09:12:44.583Z,8020.00
2019-03-25T09:13:44.569Z,7188.00
2019-03-25T09:14:44.538Z,6732.00
2019-03-25T09:15:44.522Z,5492.00
2019-03-25T09:16:44.504Z,5352.00
2019-03-25T09:17:44.645Z,4676.00
2019-03-25T09:18:44.481Z,4932.00
2019-03-25T09:19:44.480Z,4684.00
2019-03-25T09:20:45.834Z,5152.00
2019-03-25T09:21:44.448Z,4332.00
2019-03-25T09:22:53.333Z,5112.00
2019-03-25T09:23:45.256Z,6296.00
2019-03-25T09:24:44.461Z,7040.00
2019-03-25T09:25:44.391Z,7228.00
2019-03-25T09:26:44.378Z,7860.00
2019-03-25T09:27:44.411Z,8552.00
2019-03-25T09:28:44.375Z,8752.00
2019-03-25T09:29:44.355Z,8872.00
2019-03-25T09:30:44.385Z,10096.00
2019-03-25T09:31:44.337Z,11040.00
2019-03-25T09:32:44.399Z,10840.00
2019-03-25T09:33:44.307Z,11368.00
2019-03-25T09:34:44.297Z,10840.00
2019-03-25T09:35:44.352Z,9832.00
2019-03-25T09:36:44.322Z,7792.00
2019-03-25T09:37:44.288Z,9048.00
2019-03-25T09:38:44.264Z,9012.00
2019-03-25T09:39:44.252Z,8240.00
2019-03-25T09:40:44.238Z,8736.00
2019-03-25T09:41:44.241Z,8404.00
2019-03-25T09:42:44.226Z,8252.00
2019-03-25T09:43:44.208Z,6904.00
2019-03-25T09:44:44.223Z,5456.00
2019-03-25T09:45:44.197Z,4436.00
2019-03-25T09:46:44.178Z,4236.00
2019-03-25T09:47:44.189Z,4848.00
2019-03-25T09:48:44.148Z,4096.00
2019-03-25T09:49:44.185Z,3904.00
2019-03-25T09:50:44.146Z,3444.00
2019-03-25T09:51:44.125Z,3700.00
2019-03-25T09:52:44.156Z,4112.00
2019-03-25T09:53:44.133Z,4888.00
2019-03-25T09:54:44.110Z,5840.00
2019-03-25T09:55:44.090Z,7316.00
2019-03-25T09:56:44.090Z,7940.00
2019-03-25T09:57:44.063Z,7428.00
2019-03-25T09:58:44.049Z,6288.00
2019-03-25T09:59:44.054Z,7228.00
2019-03-25T10:00:44.042Z,8304.00
2019-03-25T10:01:44.040Z,8684.00
2019-03-25T10:02:44.006Z,9756.00
2019-03-25T10:03:44.006Z,9856.00
2019-03-25T10:04:44.061Z,10460.00
2019-03-25T10:05:43.981Z,10720.00
2019-03-25T10:06:44.016Z,11516.00
2019-03-25T10:07:43.966Z,12456.00
2019-03-25T10:08:43.948Z,12336.00
2019-03-25T10:09:43.948Z,11220.00
2019-03-25T10:10:43.932Z,9660.00
2019-03-25T10:11:43.910Z,8580.00
2019-03-25T10:12:43.924Z,7824.00
2019-03-25T10:13:43.892Z,7780.00
2019-03-25T10:14:43.894Z,9284.00
2019-03-25T10:15:43.873Z,11372.00
2019-03-25T10:16:43.863Z,10760.00
2019-03-25T10:17:43.891Z,9292.00
2019-03-25T10:18:43.858Z,6204.00
2019-03-25T10:19:43.858Z,5212.00
2019-03-25T10:20:43.857Z,5908.00
2019-03-25T10:21:43.839Z,4544.00
2019-03-25T10:22:43.820Z,5428.00
2019-03-25T10:23:43.923Z,4932.00
2019-03-25T10:24:43.781Z,7824.00
2019-03-25T10:25:43.792Z,8780.00
2019-03-25T10:26:43.784Z,7652.00
2019-03-25T10:27:43.756Z,8188.00
2019-03-25T10:28:48.778Z,10308.00
2019-03-25T10:29:44.752Z,10668.00
2019-03-25T10:30:43.752Z,10820.00
2019-03-25T10:31:43.728Z,11976.00
2019-03-25T10:32:43.721Z,12744.00
2019-03-25T10:33:43.714Z,13336.00
2019-03-25T10:34:43.672Z,13280.00
2019-03-25T10:35:43.697Z,13424.00
2019-03-25T10:36:43.675Z,14800.00
2019-03-25T10:37:43.649Z,14696.00
2019-03-25T10:38:43.650Z,15872.00
2019-03-25T10:39:43.628Z,17696.00
2019-03-25T10:40:43.620Z,18592.00
2019-03-25T10:41:43.608Z,16384.00
2019-03-25T10:42:43.613Z,17984.00
2019-03-25T10:43:43.700Z,18784.00
2019-03-25T10:44:43.575Z,16128.00
2019-03-25T10:45:43.594Z,14368.00
2019-03-25T10:46:43.600Z,13776.00
2019-03-25T10:47:43.557Z,14516.00
2019-03-25T10:48:43.554Z,15232.00
2019-03-25T10:49:43.540Z,15648.00
2019-03-25T10:50:43.537Z,15456.00
2019-03-25T10:51:43.497Z,12192.00
2019-03-25T10:52:43.492Z,10600.00
2019-03-25T10:53:43.486Z,11320.00
2019-03-25T10:54:43.605Z,12680.00
2019-03-25T10:55:43.470Z,13308.00
2019-03-25T10:56:49.086Z,14640.00
2019-03-25T10:57:44.445Z,15200.00
2019-03-25T10:58:43.429Z,12848.00
2019-03-25T10:59:43.454Z,12020.00
2019-03-25T11:00:43.418Z,14476.00
2019-03-25T11:01:43.427Z,16192.00
2019-03-25T11:02:43.415Z,14016.00
2019-03-25T11:03:43.378Z,13976.00
2019-03-25T11:04:43.411Z,11636.00
2019-03-25T11:05:43.393Z,10712.00
2019-03-25T11:06:43.364Z,9140.00
2019-03-25T11:08:43.315Z,9944.00
2019-03-25T11:09:43.315Z,10236.00
2019-03-25T11:10:43.344Z,9904.00
2019-03-25T11:11:43.288Z,10648.00
2019-03-25T11:12:43.295Z,11160.00
2019-03-25T11:13:43.280Z,8712.00
2019-03-25T11:14:43.265Z,7568.00
2019-03-25T11:15:43.273Z,6772.00
2019-03-25T11:16:43.259Z,6216.00
2019-03-25T11:17:43.239Z,5984.00
2019-03-25T11:18:43.222Z,6208.00
2019-03-25T11:19:43.243Z,6384.00
2019-03-25T11:20:43.247Z,6368.00
2019-03-25T11:21:43.234Z,5700.00
2019-03-25T11:22:43.181Z,4832.00
2019-03-25T11:23:43.187Z,4304.00
2019-03-25T11:24:43.168Z,4364.00
2019-03-25T11:25:43.159Z,5416.00
2019-03-25T11:26:43.165Z,6472.00
2019-03-25T11:27:43.157Z,6576.00
2019-03-25T11:28:43.116Z,6704.00
2019-03-25T11:29:43.142Z,6352.00
2019-03-25T11:30:43.123Z,5284.00
2019-03-25T11:31:43.069Z,4028.00
2019-03-25T11:32:43.066Z,3880.00
2019-03-25T11:33:43.054Z,5132.00
2019-03-25T11:34:43.047Z,5072.00
2019-03-25T11:35:43.039Z,5016.00
2019-03-25T11:36:43.049Z,4956.00
2019-03-25T11:37:43.027Z,4912.00
2019-03-25T11:38:43.012Z,4992.00
2019-03-25T11:39:43.035Z,5244.00
2019-03-25T11:40:43.021Z,5836.00
2019-03-25T11:41:42.983Z,6696.00
2019-03-25T11:42:42.975Z,8468.00
2019-03-25T11:43:42.956Z,9472.00
2019-03-25T11:44:42.939Z,11404.00
2019-03-25T11:45:42.923Z,13300.00
2019-03-25T11:46:42.935Z,12948.00
2019-03-25T11:47:42.932Z,13976.00
2019-03-25T11:48:42.904Z,12716.00
2019-03-25T11:49:44.503Z,12528.00
2019-03-25T11:50:42.864Z,8416.00
2019-03-25T11:51:42.890Z,8220.00
2019-03-25T11:52:42.873Z,9912.00
2019-03-25T11:53:42.911Z,9644.00
2019-03-25T11:54:42.875Z,6832.00
2019-03-25T11:55:42.831Z,6848.00
2019-03-25T11:56:42.829Z,7800.00
2019-03-25T11:57:42.844Z,9416.00
2019-03-25T11:58:42.808Z,9768.00
2019-03-25T11:59:42.800Z,6944.00
2019-03-25T12:00:42.787Z,5916.00
2019-03-25T12:01:42.769Z,5648.00
2019-03-25T12:02:42.787Z,6180.00
2019-03-25T12:03:42.767Z,7000.00
2019-03-25T12:04:42.731Z,8240.00
2019-03-25T12:05:42.725Z,11604.00
2019-03-25T12:06:42.725Z,14352.00
2019-03-25T12:07:42.691Z,16832.00
2019-03-25T12:08:42.706Z,17888.00
2019-03-25T12:09:42.694Z,16768.00
2019-03-25T12:10:42.666Z,15456.00
2019-03-25T12:11:42.637Z,14948.00
2019-03-25T12:12:42.645Z,11920.00
2019-03-25T12:13:42.627Z,12848.00
2019-03-25T12:14:42.626Z,11920.00
2019-03-25T12:15:42.617Z,10044.00
2019-03-25T12:16:42.617Z,9840.00
2019-03-25T12:17:42.591Z,10132.00
2019-03-25T12:18:42.569Z,12800.00
2019-03-25T12:19:42.612Z,12176.00
2019-03-25T12:20:42.560Z,9060.00
2019-03-25T12:21:42.547Z,6024.00
2019-03-25T12:22:42.547Z,4580.00
2019-03-25T12:23:42.525Z,3904.00
2019-03-25T12:24:42.522Z,3504.00
2019-03-25T12:25:42.541Z,3264.00
2019-03-25T12:26:42.508Z,3320.00
2019-03-25T12:27:42.491Z,3612.00
2019-03-25T12:28:42.498Z,4616.00
2019-03-25T12:29:42.691Z,5708.00
2019-03-25T12:30:42.469Z,4796.00
2019-03-25T12:31:42.452Z,4716.00
2019-03-25T12:32:42.439Z,5572.00
2019-03-25T12:33:42.418Z,7016.00
2019-03-25T12:34:42.412Z,71648.00
2019-03-25T12:35:42.452Z,73472.00